sensor_id;sensor_type;location;lat;lon;timestamp;P1;durP1;ratioP1;P2;durP2;ratioP2
55140;SDS011;41035;44.280;19.870;2023-01-16T00:01:18;178.68;;;89.90;;
55140;SDS011;41035;44.280;19.870;2023-01-16T00:03:44;148.70;;;73.57;;
55140;SDS011;41035;44.280;19.870;2023-01-16T00:06:10;173.90;;;89.85;;
55140;SDS011;41035;44.280;19.870;2023-01-16T00:08:36;268.00;;;125.03;;
55140;SDS011;41035;44.280;19.870;2023-01-16T00:11:02;138.20;;;67.03;;
55140;SDS011;41035;44.280;19.870;2023-01-16T00:13:28;151.50;;;72.05;;
55140;SDS011;41035;44.280;19.870;2023-01-16T00:15:54;132.13;;;65.05;;
55140;SDS011;41035;44.280;19.870;2023-01-16T00:18:20;164.95;;;82.03;;
55140;SDS011;41035;44.280;19.870;2023-01-16T00:20:46;72.10;;;36.30;;
55140;SDS011;41035;44.280;19.870;2023-01-16T00:23:15;115.82;;;56.75;;
55140;SDS011;41035;44.280;19.870;2023-01-16T00:25:41;124.73;;;60.13;;
55140;SDS011;41035;44.280;19.870;2023-01-16T00:28:12;134.77;;;66.20;;
55140;SDS011;41035;44.280;19.870;2023-01-16T00:30:38;192.85;;;87.80;;
55140;SDS011;41035;44.280;19.870;2023-01-16T00:33:05;195.32;;;92.43;;
55140;SDS011;41035;44.280;19.870;2023-01-16T00:35:31;204.43;;;98.28;;
55140;SDS011;41035;44.280;19.870;2023-01-16T00:37:57;236.30;;;96.15;;
55140;SDS011;41035;44.280;19.870;2023-01-16T00:40:23;431.48;;;162.15;;
55140;SDS011;41035;44.280;19.870;2023-01-16T00:42:49;294.25;;;121.30;;
55140;SDS011;41035;44.280;19.870;2023-01-16T00:45:15;261.65;;;119.45;;
55140;SDS011;41035;44.280;19.870;2023-01-16T00:47:41;138.02;;;69.30;;
55140;SDS011;41035;44.280;19.870;2023-01-16T00:50:08;114.00;;;54.85;;
55140;SDS011;41035;44.280;19.870;2023-01-16T00:52:34;92.30;;;46.13;;
55140;SDS011;41035;44.280;19.870;2023-01-16T00:55:00;106.18;;;53.58;;
55140;SDS011;41035;44.280;19.870;2023-01-16T00:57:26;206.38;;;105.68;;
55140;SDS011;41035;44.280;19.870;2023-01-16T00:59:52;278.27;;;129.90;;
55140;SDS011;41035;44.280;19.870;2023-01-16T01:02:18;152.40;;;71.85;;
55140;SDS011;41035;44.280;19.870;2023-01-16T01:04:44;436.52;;;204.93;;
55140;SDS011;41035;44.280;19.870;2023-01-16T01:07:10;372.08;;;174.35;;
55140;SDS011;41035;44.280;19.870;2023-01-16T01:09:37;450.15;;;226.13;;
55140;SDS011;41035;44.280;19.870;2023-01-16T01:12:03;328.27;;;156.00;;
55140;SDS011;41035;44.280;19.870;2023-01-16T01:14:29;262.65;;;118.60;;
55140;SDS011;41035;44.280;19.870;2023-01-16T01:16:55;311.45;;;138.68;;
55140;SDS011;41035;44.280;19.870;2023-01-16T01:19:21;225.50;;;98.97;;
55140;SDS011;41035;44.280;19.870;2023-01-16T01:21:47;118.20;;;58.63;;
55140;SDS011;41035;44.280;19.870;2023-01-16T01:24:13;113.72;;;56.95;;
55140;SDS011;41035;44.280;19.870;2023-01-16T01:26:39;100.22;;;52.08;;
55140;SDS011;41035;44.280;19.870;2023-01-16T01:29:06;103.15;;;50.75;;
55140;SDS011;41035;44.280;19.870;2023-01-16T01:31:32;71.55;;;36.70;;
55140;SDS011;41035;44.280;19.870;2023-01-16T01:33:58;94.78;;;46.33;;
55140;SDS011;41035;44.280;19.870;2023-01-16T01:36:24;98.45;;;50.63;;
55140;SDS011;41035;44.280;19.870;2023-01-16T01:38:50;98.53;;;48.83;;
55140;SDS011;41035;44.280;19.870;2023-01-16T01:41:17;77.05;;;39.80;;
55140;SDS011;41035;44.280;19.870;2023-01-16T01:43:45;65.78;;;36.58;;
55140;SDS011;41035;44.280;19.870;2023-01-16T01:46:23;81.10;;;42.17;;
55140;SDS011;41035;44.280;19.870;2023-01-16T01:48:52;99.30;;;51.00;;
55140;SDS011;41035;44.280;19.870;2023-01-16T01:51:20;121.10;;;64.68;;
55140;SDS011;41035;44.280;19.870;2023-01-16T01:53:52;166.00;;;82.28;;
55140;SDS011;41035;44.280;19.870;2023-01-16T01:56:24;234.77;;;101.88;;
55140;SDS011;41035;44.280;19.870;2023-01-16T01:58:54;134.25;;;66.10;;
55140;SDS011;41035;44.280;19.870;2023-01-16T02:01:20;122.07;;;60.17;;
55140;SDS011;41035;44.280;19.870;2023-01-16T02:04:03;137.20;;;72.13;;
55140;SDS011;41035;44.280;19.870;2023-01-16T02:06:33;174.38;;;84.45;;
55140;SDS011;41035;44.280;19.870;2023-01-16T02:09:00;173.25;;;84.03;;
55140;SDS011;41035;44.280;19.870;2023-01-16T02:11:30;165.48;;;75.60;;
55140;SDS011;41035;44.280;19.870;2023-01-16T02:13:58;170.20;;;79.72;;
55140;SDS011;41035;44.280;19.870;2023-01-16T02:16:25;191.45;;;91.35;;
55140;SDS011;41035;44.280;19.870;2023-01-16T02:19:14;148.00;;;70.90;;
55140;SDS011;41035;44.280;19.870;2023-01-16T02:25:14;120.63;;;57.00;;
55140;SDS011;41035;44.280;19.870;2023-01-16T02:32:39;96.15;;;48.42;;
55140;SDS011;41035;44.280;19.870;2023-01-16T02:37:59;124.82;;;57.10;;
55140;SDS011;41035;44.280;19.870;2023-01-16T02:47:55;71.32;;;35.78;;
55140;SDS011;41035;44.280;19.870;2023-01-16T02:58:22;72.38;;;36.60;;
55140;SDS011;41035;44.280;19.870;2023-01-16T03:00:56;75.65;;;37.35;;
55140;SDS011;41035;44.280;19.870;2023-01-16T03:03:34;89.00;;;43.80;;
55140;SDS011;41035;44.280;19.870;2023-01-16T03:06:03;78.82;;;40.75;;
55140;SDS011;41035;44.280;19.870;2023-01-16T03:13:41;185.38;;;91.00;;
55140;SDS011;41035;44.280;19.870;2023-01-16T03:19:04;130.30;;;60.53;;
55140;SDS011;41035;44.280;19.870;2023-01-16T03:24:08;73.63;;;34.50;;
55140;SDS011;41035;44.280;19.870;2023-01-16T03:26:42;245.43;;;110.47;;
55140;SDS011;41035;44.280;19.870;2023-01-16T03:37:06;46.03;;;22.90;;
55140;SDS011;41035;44.280;19.870;2023-01-16T03:39:38;39.10;;;20.83;;
55140;SDS011;41035;44.280;19.870;2023-01-16T03:42:11;31.80;;;17.80;;
55140;SDS011;41035;44.280;19.870;2023-01-16T03:44:39;30.23;;;16.67;;
55140;SDS011;41035;44.280;19.870;2023-01-16T03:47:06;29.33;;;16.70;;
55140;SDS011;41035;44.280;19.870;2023-01-16T03:49:34;30.42;;;15.60;;
55140;SDS011;41035;44.280;19.870;2023-01-16T03:52:04;36.58;;;20.00;;
55140;SDS011;41035;44.280;19.870;2023-01-16T03:57:10;78.20;;;33.55;;
55140;SDS011;41035;44.280;19.870;2023-01-16T03:59:37;51.47;;;23.80;;
55140;SDS011;41035;44.280;19.870;2023-01-16T04:02:20;22.70;;;11.25;;
55140;SDS011;41035;44.280;19.870;2023-01-16T04:05:04;13.07;;;6.78;;
55140;SDS011;41035;44.280;19.870;2023-01-16T04:07:55;10.20;;;6.00;;
55140;SDS011;41035;44.280;19.870;2023-01-16T04:10:20;16.15;;;8.40;;
55140;SDS011;41035;44.280;19.870;2023-01-16T04:12:49;30.80;;;15.25;;
55140;SDS011;41035;44.280;19.870;2023-01-16T04:15:16;36.00;;;19.38;;
55140;SDS011;41035;44.280;19.870;2023-01-16T04:17:43;30.45;;;16.88;;
55140;SDS011;41035;44.280;19.870;2023-01-16T04:20:10;50.10;;;25.80;;
55140;SDS011;41035;44.280;19.870;2023-01-16T04:22:36;59.55;;;30.65;;
55140;SDS011;41035;44.280;19.870;2023-01-16T04:25:04;28.38;;;15.80;;
55140;SDS011;41035;44.280;19.870;2023-01-16T04:27:31;22.60;;;12.97;;
55140;SDS011;41035;44.280;19.870;2023-01-16T04:29:57;12.48;;;7.50;;
55140;SDS011;41035;44.280;19.870;2023-01-16T04:32:23;18.40;;;9.38;;
55140;SDS011;41035;44.280;19.870;2023-01-16T04:34:49;21.35;;;11.90;;
55140;SDS011;41035;44.280;19.870;2023-01-16T04:37:15;34.95;;;15.10;;
55140;SDS011;41035;44.280;19.870;2023-01-16T04:39:42;48.47;;;24.55;;
55140;SDS011;41035;44.280;19.870;2023-01-16T04:42:08;65.50;;;31.88;;
55140;SDS011;41035;44.280;19.870;2023-01-16T04:44:34;43.22;;;24.92;;
55140;SDS011;41035;44.280;19.870;2023-01-16T04:47:00;35.30;;;20.65;;
55140;SDS011;41035;44.280;19.870;2023-01-16T04:49:27;62.53;;;35.90;;
55140;SDS011;41035;44.280;19.870;2023-01-16T04:51:53;38.25;;;21.20;;
55140;SDS011;41035;44.280;19.870;2023-01-16T04:54:19;26.50;;;14.40;;
55140;SDS011;41035;44.280;19.870;2023-01-16T04:56:46;22.70;;;12.60;;
55140;SDS011;41035;44.280;19.870;2023-01-16T04:59:12;38.13;;;18.65;;
55140;SDS011;41035;44.280;19.870;2023-01-16T05:01:39;38.60;;;16.60;;
55140;SDS011;41035;44.280;19.870;2023-01-16T05:04:05;55.90;;;28.83;;
55140;SDS011;41035;44.280;19.870;2023-01-16T05:06:32;27.00;;;13.18;;
55140;SDS011;41035;44.280;19.870;2023-01-16T05:08:59;45.92;;;25.48;;
55140;SDS011;41035;44.280;19.870;2023-01-16T05:11:25;21.58;;;11.63;;
55140;SDS011;41035;44.280;19.870;2023-01-16T05:13:51;37.85;;;16.20;;
55140;SDS011;41035;44.280;19.870;2023-01-16T05:16:17;26.90;;;14.00;;
55140;SDS011;41035;44.280;19.870;2023-01-16T05:18:43;15.32;;;8.95;;
55140;SDS011;41035;44.280;19.870;2023-01-16T05:21:09;16.05;;;9.63;;
55140;SDS011;41035;44.280;19.870;2023-01-16T05:23:35;21.92;;;11.32;;
55140;SDS011;41035;44.280;19.870;2023-01-16T05:26:02;56.90;;;24.55;;
55140;SDS011;41035;44.280;19.870;2023-01-16T05:28:29;81.47;;;39.25;;
55140;SDS011;41035;44.280;19.870;2023-01-16T05:30:55;119.40;;;39.83;;
55140;SDS011;41035;44.280;19.870;2023-01-16T05:33:21;180.15;;;66.20;;
55140;SDS011;41035;44.280;19.870;2023-01-16T05:35:49;96.55;;;40.78;;
55140;SDS011;41035;44.280;19.870;2023-01-16T05:38:16;43.78;;;24.13;;
55140;SDS011;41035;44.280;19.870;2023-01-16T05:40:45;22.35;;;13.65;;
55140;SDS011;41035;44.280;19.870;2023-01-16T05:43:12;118.50;;;44.55;;
55140;SDS011;41035;44.280;19.870;2023-01-16T05:45:38;97.13;;;39.00;;
55140;SDS011;41035;44.280;19.870;2023-01-16T05:48:04;61.97;;;29.73;;
55140;SDS011;41035;44.280;19.870;2023-01-16T05:50:30;46.78;;;22.75;;
55140;SDS011;41035;44.280;19.870;2023-01-16T05:52:56;100.50;;;56.70;;
55140;SDS011;41035;44.280;19.870;2023-01-16T05:55:22;44.75;;;24.77;;
55140;SDS011;41035;44.280;19.870;2023-01-16T05:57:48;16.17;;;9.38;;
55140;SDS011;41035;44.280;19.870;2023-01-16T06:00:15;33.22;;;18.17;;
55140;SDS011;41035;44.280;19.870;2023-01-16T06:02:41;22.08;;;12.18;;
55140;SDS011;41035;44.280;19.870;2023-01-16T06:05:07;39.17;;;18.73;;
55140;SDS011;41035;44.280;19.870;2023-01-16T06:07:34;51.55;;;26.15;;
55140;SDS011;41035;44.280;19.870;2023-01-16T06:10:00;75.80;;;37.80;;
55140;SDS011;41035;44.280;19.870;2023-01-16T06:12:26;64.90;;;33.03;;
55140;SDS011;41035;44.280;19.870;2023-01-16T06:14:52;78.63;;;39.70;;
55140;SDS011;41035;44.280;19.870;2023-01-16T06:17:18;53.63;;;27.65;;
55140;SDS011;41035;44.280;19.870;2023-01-16T06:19:45;83.60;;;43.35;;
55140;SDS011;41035;44.280;19.870;2023-01-16T06:22:12;108.45;;;55.08;;
55140;SDS011;41035;44.280;19.870;2023-01-16T06:24:38;161.25;;;77.50;;
55140;SDS011;41035;44.280;19.870;2023-01-16T06:27:04;327.05;;;141.93;;
55140;SDS011;41035;44.280;19.870;2023-01-16T06:29:30;424.10;;;194.82;;
55140;SDS011;41035;44.280;19.870;2023-01-16T06:31:56;325.13;;;144.88;;
55140;SDS011;41035;44.280;19.870;2023-01-16T06:34:22;190.02;;;83.50;;
55140;SDS011;41035;44.280;19.870;2023-01-16T06:36:48;190.43;;;90.15;;
55140;SDS011;41035;44.280;19.870;2023-01-16T06:39:15;262.25;;;125.05;;
55140;SDS011;41035;44.280;19.870;2023-01-16T06:41:41;143.15;;;68.22;;
55140;SDS011;41035;44.280;19.870;2023-01-16T06:44:07;192.38;;;91.43;;
55140;SDS011;41035;44.280;19.870;2023-01-16T06:46:33;86.20;;;45.65;;
55140;SDS011;41035;44.280;19.870;2023-01-16T06:48:59;63.17;;;34.80;;
55140;SDS011;41035;44.280;19.870;2023-01-16T06:51:26;90.38;;;47.22;;
55140;SDS011;41035;44.280;19.870;2023-01-16T06:53:52;82.35;;;44.10;;
55140;SDS011;41035;44.280;19.870;2023-01-16T06:56:18;119.90;;;61.60;;
55140;SDS011;41035;44.280;19.870;2023-01-16T06:58:44;27.00;;;14.50;;
55140;SDS011;41035;44.280;19.870;2023-01-16T07:01:10;22.50;;;13.32;;
55140;SDS011;41035;44.280;19.870;2023-01-16T07:03:36;19.75;;;13.35;;
55140;SDS011;41035;44.280;19.870;2023-01-16T07:06:02;25.73;;;15.82;;
55140;SDS011;41035;44.280;19.870;2023-01-16T07:08:28;51.53;;;24.80;;
55140;SDS011;41035;44.280;19.870;2023-01-16T07:10:58;68.40;;;31.67;;
55140;SDS011;41035;44.280;19.870;2023-01-16T07:13:24;49.60;;;25.00;;
55140;SDS011;41035;44.280;19.870;2023-01-16T07:15:52;50.53;;;25.88;;
55140;SDS011;41035;44.280;19.870;2023-01-16T07:18:37;75.10;;;38.30;;
55140;SDS011;41035;44.280;19.870;2023-01-16T07:21:21;97.38;;;46.70;;
55140;SDS011;41035;44.280;19.870;2023-01-16T07:24:08;83.75;;;42.35;;
55140;SDS011;41035;44.280;19.870;2023-01-16T07:26:36;76.32;;;38.83;;
55140;SDS011;41035;44.280;19.870;2023-01-16T07:29:03;79.72;;;40.80;;
55140;SDS011;41035;44.280;19.870;2023-01-16T07:31:30;226.60;;;106.72;;
55140;SDS011;41035;44.280;19.870;2023-01-16T07:33:56;118.18;;;59.35;;
55140;SDS011;41035;44.280;19.870;2023-01-16T07:36:22;83.43;;;44.22;;
55140;SDS011;41035;44.280;19.870;2023-01-16T07:38:48;75.22;;;40.47;;
55140;SDS011;41035;44.280;19.870;2023-01-16T07:41:15;104.65;;;52.55;;
55140;SDS011;41035;44.280;19.870;2023-01-16T07:43:41;126.32;;;58.70;;
55140;SDS011;41035;44.280;19.870;2023-01-16T07:46:07;128.60;;;70.65;;
55140;SDS011;41035;44.280;19.870;2023-01-16T07:48:33;159.35;;;86.05;;
55140;SDS011;41035;44.280;19.870;2023-01-16T07:50:59;239.18;;;113.90;;
55140;SDS011;41035;44.280;19.870;2023-01-16T07:53:26;331.58;;;171.05;;
55140;SDS011;41035;44.280;19.870;2023-01-16T07:55:56;577.83;;;320.80;;
55140;SDS011;41035;44.280;19.870;2023-01-16T07:58:22;280.33;;;139.80;;
55140;SDS011;41035;44.280;19.870;2023-01-16T08:00:49;442.00;;;251.80;;
55140;SDS011;41035;44.280;19.870;2023-01-16T08:03:15;134.25;;;70.05;;
55140;SDS011;41035;44.280;19.870;2023-01-16T08:05:41;212.00;;;103.43;;
55140;SDS011;41035;44.280;19.870;2023-01-16T08:08:08;199.18;;;106.03;;
55140;SDS011;41035;44.280;19.870;2023-01-16T08:10:34;168.00;;;87.57;;
55140;SDS011;41035;44.280;19.870;2023-01-16T08:13:01;254.52;;;132.27;;
55140;SDS011;41035;44.280;19.870;2023-01-16T08:15:27;103.95;;;52.00;;
55140;SDS011;41035;44.280;19.870;2023-01-16T08:17:53;55.90;;;28.88;;
55140;SDS011;41035;44.280;19.870;2023-01-16T08:20:19;81.05;;;46.13;;
55140;SDS011;41035;44.280;19.870;2023-01-16T08:22:47;168.60;;;87.57;;
55140;SDS011;41035;44.280;19.870;2023-01-16T08:25:15;278.60;;;140.10;;
55140;SDS011;41035;44.280;19.870;2023-01-16T08:27:41;371.48;;;195.30;;
55140;SDS011;41035;44.280;19.870;2023-01-16T08:30:08;193.48;;;101.68;;
55140;SDS011;41035;44.280;19.870;2023-01-16T08:32:34;169.65;;;87.45;;
55140;SDS011;41035;44.280;19.870;2023-01-16T08:35:01;168.95;;;91.55;;
55140;SDS011;41035;44.280;19.870;2023-01-16T08:37:29;226.25;;;114.75;;
55140;SDS011;41035;44.280;19.870;2023-01-16T08:39:55;191.90;;;99.03;;
55140;SDS011;41035;44.280;19.870;2023-01-16T08:42:21;177.02;;;94.93;;
55140;SDS011;41035;44.280;19.870;2023-01-16T08:45:08;178.02;;;94.57;;
55140;SDS011;41035;44.280;19.870;2023-01-16T08:47:53;154.20;;;82.03;;
55140;SDS011;41035;44.280;19.870;2023-01-16T08:50:38;329.17;;;171.15;;
55140;SDS011;41035;44.280;19.870;2023-01-16T08:53:30;270.77;;;141.85;;
55140;SDS011;41035;44.280;19.870;2023-01-16T08:55:56;160.95;;;86.30;;
55140;SDS011;41035;44.280;19.870;2023-01-16T08:58:22;277.02;;;152.50;;
55140;SDS011;41035;44.280;19.870;2023-01-16T09:00:48;188.15;;;100.95;;
55140;SDS011;41035;44.280;19.870;2023-01-16T09:03:15;196.85;;;93.72;;
55140;SDS011;41035;44.280;19.870;2023-01-16T09:05:44;401.42;;;146.38;;
55140;SDS011;41035;44.280;19.870;2023-01-16T09:08:10;266.50;;;111.80;;
55140;SDS011;41035;44.280;19.870;2023-01-16T09:10:37;130.25;;;62.58;;
55140;SDS011;41035;44.280;19.870;2023-01-16T09:13:03;172.80;;;85.05;;
55140;SDS011;41035;44.280;19.870;2023-01-16T09:15:48;262.10;;;124.90;;
55140;SDS011;41035;44.280;19.870;2023-01-16T09:18:14;329.33;;;179.32;;
55140;SDS011;41035;44.280;19.870;2023-01-16T09:20:40;196.38;;;102.38;;
55140;SDS011;41035;44.280;19.870;2023-01-16T09:23:06;168.48;;;83.28;;
55140;SDS011;41035;44.280;19.870;2023-01-16T09:25:32;252.82;;;128.07;;
55140;SDS011;41035;44.280;19.870;2023-01-16T09:27:59;207.38;;;106.78;;
55140;SDS011;41035;44.280;19.870;2023-01-16T09:30:26;172.30;;;85.68;;
55140;SDS011;41035;44.280;19.870;2023-01-16T09:32:52;214.13;;;106.97;;
55140;SDS011;41035;44.280;19.870;2023-01-16T09:35:19;256.73;;;132.88;;
55140;SDS011;41035;44.280;19.870;2023-01-16T09:37:45;241.57;;;126.90;;
55140;SDS011;41035;44.280;19.870;2023-01-16T09:40:18;249.55;;;127.68;;
55140;SDS011;41035;44.280;19.870;2023-01-16T09:45:32;246.77;;;123.43;;
55140;SDS011;41035;44.280;19.870;2023-01-16T09:48:00;271.75;;;140.52;;
55140;SDS011;41035;44.280;19.870;2023-01-16T09:52:53;230.10;;;115.70;;
55140;SDS011;41035;44.280;19.870;2023-01-16T09:55:40;170.75;;;92.53;;
55140;SDS011;41035;44.280;19.870;2023-01-16T09:58:25;137.80;;;73.57;;
55140;SDS011;41035;44.280;19.870;2023-01-16T10:03:37;116.72;;;59.47;;
55140;SDS011;41035;44.280;19.870;2023-01-16T10:11:53;195.95;;;104.25;;
55140;SDS011;41035;44.280;19.870;2023-01-16T10:14:35;190.25;;;100.18;;
55140;SDS011;41035;44.280;19.870;2023-01-16T10:29:50;321.95;;;165.90;;
55140;SDS011;41035;44.280;19.870;2023-01-16T10:32:29;166.95;;;84.88;;
55140;SDS011;41035;44.280;19.870;2023-01-16T10:37:25;218.80;;;106.18;;
55140;SDS011;41035;44.280;19.870;2023-01-16T10:39:52;217.82;;;105.82;;
55140;SDS011;41035;44.280;19.870;2023-01-16T10:42:21;85.38;;;43.83;;
55140;SDS011;41035;44.280;19.870;2023-01-16T10:47:52;67.18;;;34.70;;
55140;SDS011;41035;44.280;19.870;2023-01-16T10:50:37;128.23;;;58.58;;
55140;SDS011;41035;44.280;19.870;2023-01-16T10:53:04;106.05;;;51.10;;
55140;SDS011;41035;44.280;19.870;2023-01-16T10:55:30;210.00;;;100.85;;
55140;SDS011;41035;44.280;19.870;2023-01-16T10:57:58;128.00;;;64.38;;
55140;SDS011;41035;44.280;19.870;2023-01-16T11:00:34;169.40;;;79.68;;
55140;SDS011;41035;44.280;19.870;2023-01-16T11:03:04;116.10;;;54.42;;
55140;SDS011;41035;44.280;19.870;2023-01-16T11:05:35;128.75;;;60.80;;
55140;SDS011;41035;44.280;19.870;2023-01-16T11:08:22;96.72;;;45.13;;
55140;SDS011;41035;44.280;19.870;2023-01-16T11:10:48;81.78;;;38.35;;
55140;SDS011;41035;44.280;19.870;2023-01-16T11:13:22;75.05;;;36.33;;
55140;SDS011;41035;44.280;19.870;2023-01-16T11:18:56;100.38;;;47.15;;
55140;SDS011;41035;44.280;19.870;2023-01-16T11:21:23;101.13;;;46.30;;
55140;SDS011;41035;44.280;19.870;2023-01-16T11:23:52;130.13;;;61.03;;
55140;SDS011;41035;44.280;19.870;2023-01-16T11:26:21;117.88;;;56.30;;
55140;SDS011;41035;44.280;19.870;2023-01-16T11:28:48;114.13;;;52.95;;
55140;SDS011;41035;44.280;19.870;2023-01-16T11:31:18;120.68;;;53.47;;
55140;SDS011;41035;44.280;19.870;2023-01-16T11:33:46;104.68;;;46.78;;
55140;SDS011;41035;44.280;19.870;2023-01-16T11:36:15;123.38;;;56.55;;
55140;SDS011;41035;44.280;19.870;2023-01-16T11:41:09;105.43;;;48.55;;
55140;SDS011;41035;44.280;19.870;2023-01-16T11:43:35;89.50;;;42.42;;
55140;SDS011;41035;44.280;19.870;2023-01-16T11:48:49;111.03;;;48.40;;
55140;SDS011;41035;44.280;19.870;2023-01-16T11:51:18;95.55;;;45.30;;
55140;SDS011;41035;44.280;19.870;2023-01-16T11:53:48;99.25;;;49.88;;
55140;SDS011;41035;44.280;19.870;2023-01-16T11:56:17;120.20;;;57.15;;
55140;SDS011;41035;44.280;19.870;2023-01-16T11:59:10;66.82;;;32.08;;
55140;SDS011;41035;44.280;19.870;2023-01-16T12:02:04;227.80;;;114.70;;
55140;SDS011;41035;44.280;19.870;2023-01-16T12:18:42;61.50;;;34.05;;
55140;SDS011;41035;44.280;19.870;2023-01-16T12:21:20;77.25;;;35.72;;
55140;SDS011;41035;44.280;19.870;2023-01-16T12:26:37;63.80;;;32.40;;
55140;SDS011;41035;44.280;19.870;2023-01-16T12:41:36;72.25;;;32.33;;
55140;SDS011;41035;44.280;19.870;2023-01-16T12:54:51;72.68;;;35.85;;
55140;SDS011;41035;44.280;19.870;2023-01-16T12:59:49;61.22;;;31.65;;
55140;SDS011;41035;44.280;19.870;2023-01-16T13:05:03;54.55;;;24.38;;
55140;SDS011;41035;44.280;19.870;2023-01-16T13:07:35;70.03;;;37.80;;
55140;SDS011;41035;44.280;19.870;2023-01-16T13:12:55;64.68;;;31.65;;
55140;SDS011;41035;44.280;19.870;2023-01-16T13:15:41;62.47;;;26.45;;
55140;SDS011;41035;44.280;19.870;2023-01-16T13:18:19;76.25;;;33.92;;
55140;SDS011;41035;44.280;19.870;2023-01-16T13:20:47;68.80;;;31.75;;
55140;SDS011;41035;44.280;19.870;2023-01-16T13:23:17;43.40;;;22.98;;
55140;SDS011;41035;44.280;19.870;2023-01-16T13:25:46;54.75;;;26.33;;
55140;SDS011;41035;44.280;19.870;2023-01-16T13:30:38;129.75;;;57.55;;
55140;SDS011;41035;44.280;19.870;2023-01-16T13:33:07;112.18;;;51.05;;
55140;SDS011;41035;44.280;19.870;2023-01-16T13:43:28;86.88;;;42.85;;
55140;SDS011;41035;44.280;19.870;2023-01-16T13:46:13;82.65;;;41.50;;
55140;SDS011;41035;44.280;19.870;2023-01-16T13:48:40;106.28;;;52.28;;
55140;SDS011;41035;44.280;19.870;2023-01-16T13:51:13;121.25;;;58.85;;
55140;SDS011;41035;44.280;19.870;2023-01-16T13:53:40;92.25;;;47.22;;
55140;SDS011;41035;44.280;19.870;2023-01-16T13:58:42;116.28;;;55.50;;
55140;SDS011;41035;44.280;19.870;2023-01-16T14:17:10;75.50;;;40.63;;
55140;SDS011;41035;44.280;19.870;2023-01-16T14:19:38;94.00;;;47.13;;
55140;SDS011;41035;44.280;19.870;2023-01-16T14:22:11;166.40;;;90.57;;
55140;SDS011;41035;44.280;19.870;2023-01-16T14:24:43;106.18;;;56.95;;
55140;SDS011;41035;44.280;19.870;2023-01-16T14:27:12;146.55;;;79.70;;
55140;SDS011;41035;44.280;19.870;2023-01-16T14:29:49;124.43;;;69.40;;
55140;SDS011;41035;44.280;19.870;2023-01-16T14:32:17;104.00;;;57.28;;
55140;SDS011;41035;44.280;19.870;2023-01-16T14:34:51;107.68;;;54.45;;
55140;SDS011;41035;44.280;19.870;2023-01-16T14:37:23;101.10;;;51.67;;
55140;SDS011;41035;44.280;19.870;2023-01-16T14:39:53;97.93;;;50.83;;
55140;SDS011;41035;44.280;19.870;2023-01-16T14:51:34;111.45;;;60.85;;
55140;SDS011;41035;44.280;19.870;2023-01-16T14:56:48;80.68;;;45.80;;
55140;SDS011;41035;44.280;19.870;2023-01-16T14:59:18;126.32;;;67.28;;
55140;SDS011;41035;44.280;19.870;2023-01-16T15:01:47;154.80;;;77.30;;
55140;SDS011;41035;44.280;19.870;2023-01-16T15:04:37;158.60;;;76.85;;
55140;SDS011;41035;44.280;19.870;2023-01-16T15:07:06;186.15;;;97.57;;
55140;SDS011;41035;44.280;19.870;2023-01-16T15:09:32;147.40;;;80.43;;
55140;SDS011;41035;44.280;19.870;2023-01-16T15:11:59;150.95;;;82.10;;
55140;SDS011;41035;44.280;19.870;2023-01-16T15:14:25;110.32;;;58.72;;
55140;SDS011;41035;44.280;19.870;2023-01-16T15:16:53;116.25;;;63.83;;
55140;SDS011;41035;44.280;19.870;2023-01-16T15:19:38;107.35;;;59.08;;
55140;SDS011;41035;44.280;19.870;2023-01-16T15:28:10;134.02;;;76.15;;
55140;SDS011;41035;44.280;19.870;2023-01-16T15:30:38;103.65;;;54.85;;
55140;SDS011;41035;44.280;19.870;2023-01-16T15:33:11;143.90;;;86.38;;
55140;SDS011;41035;44.280;19.870;2023-01-16T15:38:44;139.38;;;75.70;;
55140;SDS011;41035;44.280;19.870;2023-01-16T15:41:10;280.30;;;152.93;;
55140;SDS011;41035;44.280;19.870;2023-01-16T15:43:37;269.67;;;139.32;;
55140;SDS011;41035;44.280;19.870;2023-01-16T15:46:29;173.88;;;87.25;;
55140;SDS011;41035;44.280;19.870;2023-01-16T15:53:54;112.05;;;63.00;;
55140;SDS011;41035;44.280;19.870;2023-01-16T15:56:38;408.63;;;212.45;;
55140;SDS011;41035;44.280;19.870;2023-01-16T15:59:19;270.88;;;145.70;;
55140;SDS011;41035;44.280;19.870;2023-01-16T16:01:46;163.52;;;91.07;;
55140;SDS011;41035;44.280;19.870;2023-01-16T16:04:12;203.50;;;106.05;;
55140;SDS011;41035;44.280;19.870;2023-01-16T16:06:38;277.67;;;136.65;;
55140;SDS011;41035;44.280;19.870;2023-01-16T16:09:05;643.05;;;334.35;;
55140;SDS011;41035;44.280;19.870;2023-01-16T16:11:32;577.05;;;299.98;;
55140;SDS011;41035;44.280;19.870;2023-01-16T16:22:46;134.88;;;82.72;;
55140;SDS011;41035;44.280;19.870;2023-01-16T16:27:41;398.25;;;197.05;;
55140;SDS011;41035;44.280;19.870;2023-01-16T16:30:13;297.13;;;143.90;;
55140;SDS011;41035;44.280;19.870;2023-01-16T16:32:41;193.60;;;101.85;;
55140;SDS011;41035;44.280;19.870;2023-01-16T16:35:15;178.05;;;97.55;;
55140;SDS011;41035;44.280;19.870;2023-01-16T16:37:42;149.15;;;84.50;;
55140;SDS011;41035;44.280;19.870;2023-01-16T16:40:13;200.00;;;101.60;;
55140;SDS011;41035;44.280;19.870;2023-01-16T16:42:52;383.50;;;150.20;;
55140;SDS011;41035;44.280;19.870;2023-01-16T16:45:20;301.70;;;143.70;;
55140;SDS011;41035;44.280;19.870;2023-01-16T16:47:47;293.07;;;141.90;;
55140;SDS011;41035;44.280;19.870;2023-01-16T16:52:46;319.45;;;144.68;;
55140;SDS011;41035;44.280;19.870;2023-01-16T16:55:29;213.82;;;105.53;;
55140;SDS011;41035;44.280;19.870;2023-01-16T16:57:56;146.55;;;79.28;;
55140;SDS011;41035;44.280;19.870;2023-01-16T17:00:23;135.75;;;81.00;;
55140;SDS011;41035;44.280;19.870;2023-01-16T17:02:49;157.30;;;95.00;;
55140;SDS011;41035;44.280;19.870;2023-01-16T17:05:16;106.00;;;64.72;;
55140;SDS011;41035;44.280;19.870;2023-01-16T17:07:47;119.32;;;76.57;;
55140;SDS011;41035;44.280;19.870;2023-01-16T17:10:16;95.07;;;56.78;;
55140;SDS011;41035;44.280;19.870;2023-01-16T17:12:42;60.83;;;34.03;;
55140;SDS011;41035;44.280;19.870;2023-01-16T17:15:09;65.07;;;38.78;;
55140;SDS011;41035;44.280;19.870;2023-01-16T17:17:38;87.57;;;51.20;;
55140;SDS011;41035;44.280;19.870;2023-01-16T17:20:11;57.08;;;33.35;;
55140;SDS011;41035;44.280;19.870;2023-01-16T17:22:38;82.90;;;46.15;;
55140;SDS011;41035;44.280;19.870;2023-01-16T17:25:05;120.88;;;71.30;;
55140;SDS011;41035;44.280;19.870;2023-01-16T17:27:31;140.75;;;77.78;;
55140;SDS011;41035;44.280;19.870;2023-01-16T17:29:57;213.20;;;111.45;;
55140;SDS011;41035;44.280;19.870;2023-01-16T17:32:27;268.13;;;134.65;;
55140;SDS011;41035;44.280;19.870;2023-01-16T17:34:57;324.65;;;160.40;;